This is the latest recevied weather packets stored in our database for station/object KC0MWM-2. If no packets are shown the sender has not sent any weather packets the latest 10 day(s).
| Time | Temp. | Humidity | Pressure | Rain* | Wind** | Luminosity | Snow |
|---|---|---|---|---|---|---|---|
| 1777392977 | 5° C | 98% | 1019.9 hPa | 0 mm | - | - | - |
| 1777391776 | 5° C | 97% | 1020.3 hPa | 0 mm | - | - | - |
| 1777388776 | 5° C | 98% | 1020.1 hPa | 0 mm | - | - | - |
| 1777386976 | 5° C | 98% | 1020 hPa | 0 mm | - | - | - |
| 1777386396 | 4.44° C | 98% | 1020.1 hPa | 0 mm | - | - | - |
| 1777385176 | 4.44° C | 98% | 1020.6 hPa | 0 mm | - | - | - |
| 1777380976 | 4.44° C | 98% | 1019.1 hPa | 0 mm | - | - | - |
| 1777379176 | 3.89° C | 97% | 1019.3 hPa | 0.25 mm | - | - | - |
| 1777378576 | 3.89° C | 97% | 1019 hPa | 1.02 mm | - | - | - |
| 1777376776 | 3.89° C | 97% | 1017.5 hPa | 2.29 mm | - | - | - |
| 1777372576 | 5° C | 89% | 1018.9 hPa | 0 mm | - | - | - |
| 1777364175 | 4.44° C | 88% | 1019.1 hPa | 0 mm | - | - | - |
| 1777363575 | 4.44° C | 88% | 1019.3 hPa | 0 mm | - | - | - |
| 1777362975 | 4.44° C | 88% | 1018.9 hPa | 0 mm | - | - | - |
| 1777357577 | 6.11° C | 84% | 1018.8 hPa | 0 mm | - | - | - |
| 1777355197 | 6.11° C | 83% | 1018.4 hPa | 0 mm | - | - | - |
| 1777354577 | 6.11° C | 83% | 1018.5 hPa | 0 mm | - | - | - |
| 1777349537 | 6.67° C | 80% | 1017.9 hPa | 0 mm | - | - | - |
| 1777348977 | 6.67° C | 80% | 1018 hPa | 0 mm | - | - | - |
| 1777348337 | 6.67° C | 80% | 1017.7 hPa | 0 mm | - | - | - |
| 1777347737 | 7.22° C | 81% | 1017.7 hPa | 0 mm | - | - | - |
| 1777347157 | 7.22° C | 80% | 1017.7 hPa | 0 mm | - | - | - |
| 1777344777 | 7.22° C | 80% | 1017.2 hPa | 0 mm | - | - | - |
| 1777331536 | 9.44° C | 73% | 1013 hPa | 0 mm | - | - | - |
| 1777329136 | 10.56° C | 72% | 1012.4 hPa | 0 mm | - | - | - |
* Rain latest hour (hover to see other rain measurements)
** Current wind speed in m/s (hover to see current wind gust speed)